sensor_id;sensor_type;location;lat;lon;timestamp;temperature;humidity
9762;DHT22;4920;49.594;11.022;2022-08-24T00:01:53;16.40;1.00
9762;DHT22;4920;49.594;11.022;2022-08-24T00:04:22;16.50;1.00
9762;DHT22;4920;49.594;11.022;2022-08-24T00:06:51;16.50;1.00
9762;DHT22;4920;49.594;11.022;2022-08-24T00:09:19;16.50;99.90
9762;DHT22;4920;49.594;11.022;2022-08-24T00:11:48;16.50;1.00
9762;DHT22;4920;49.594;11.022;2022-08-24T00:14:16;16.50;1.00
9762;DHT22;4920;49.594;11.022;2022-08-24T00:16:45;16.50;1.00
9762;DHT22;4920;49.594;11.022;2022-08-24T00:19:15;16.40;84.70
9762;DHT22;4920;49.594;11.022;2022-08-24T00:21:44;16.40;99.90
9762;DHT22;4920;49.594;11.022;2022-08-24T00:24:12;16.30;99.90
9762;DHT22;4920;49.594;11.022;2022-08-24T00:26:40;16.30;99.90
9762;DHT22;4920;49.594;11.022;2022-08-24T00:29:09;16.20;1.00
9762;DHT22;4920;49.594;11.022;2022-08-24T00:31:37;16.10;99.90
9762;DHT22;4920;49.594;11.022;2022-08-24T00:34:06;16.00;99.90
9762;DHT22;4920;49.594;11.022;2022-08-24T00:36:36;16.00;1.00
9762;DHT22;4920;49.594;11.022;2022-08-24T00:39:29;15.90;99.90
9762;DHT22;4920;49.594;11.022;2022-08-24T00:41:57;15.80;1.00
9762;DHT22;4920;49.594;11.022;2022-08-24T00:44:26;15.80;1.00
9762;DHT22;4920;49.594;11.022;2022-08-24T00:46:58;15.80;99.90
9762;DHT22;4920;49.594;11.022;2022-08-24T00:49:33;15.80;99.90
9762;DHT22;4920;49.594;11.022;2022-08-24T00:52:10;15.80;99.90
9762;DHT22;4920;49.594;11.022;2022-08-24T00:54:44;15.70;99.90
9762;DHT22;4920;49.594;11.022;2022-08-24T00:57:15;15.70;99.90
9762;DHT22;4920;49.594;11.022;2022-08-24T00:59:48;15.60;99.90
9762;DHT22;4920;49.594;11.022;2022-08-24T01:02:28;15.50;1.00
9762;DHT22;4920;49.594;11.022;2022-08-24T01:05:01;15.50;1.00
9762;DHT22;4920;49.594;11.022;2022-08-24T01:07:33;15.40;99.90
9762;DHT22;4920;49.594;11.022;2022-08-24T01:10:06;15.40;99.90
9762;DHT22;4920;49.594;11.022;2022-08-24T01:12:37;15.40;99.90
9762;DHT22;4920;49.594;11.022;2022-08-24T01:15:08;15.30;1.00
9762;DHT22;4920;49.594;11.022;2022-08-24T01:17:37;15.40;1.00
9762;DHT22;4920;49.594;11.022;2022-08-24T01:20:23;15.40;1.00
9762;DHT22;4920;49.594;11.022;2022-08-24T01:23:04;15.40;1.00
9762;DHT22;4920;49.594;11.022;2022-08-24T01:25:36;15.40;99.90
9762;DHT22;4920;49.594;11.022;2022-08-24T01:28:10;15.30;99.90
9762;DHT22;4920;49.594;11.022;2022-08-24T01:30:42;15.20;1.00
9762;DHT22;4920;49.594;11.022;2022-08-24T01:33:21;15.10;1.00
9762;DHT22;4920;49.594;11.022;2022-08-24T01:35:54;15.10;1.00
9762;DHT22;4920;49.594;11.022;2022-08-24T01:38:25;15.00;1.00
9762;DHT22;4920;49.594;11.022;2022-08-24T01:41:00;14.90;1.00
9762;DHT22;4920;49.594;11.022;2022-08-24T01:43:29;14.90;1.00
9762;DHT22;4920;49.594;11.022;2022-08-24T01:46:05;14.80;1.00
9762;DHT22;4920;49.594;11.022;2022-08-24T01:48:33;14.70;1.00
9762;DHT22;4920;49.594;11.022;2022-08-24T01:51:02;14.70;1.00
9762;DHT22;4920;49.594;11.022;2022-08-24T01:53:31;14.60;1.00
9762;DHT22;4920;49.594;11.022;2022-08-24T01:56:01;14.60;99.90
9762;DHT22;4920;49.594;11.022;2022-08-24T01:58:30;14.60;99.90
9762;DHT22;4920;49.594;11.022;2022-08-24T02:00:59;14.60;99.90
9762;DHT22;4920;49.594;11.022;2022-08-24T02:03:29;14.60;99.90
9762;DHT22;4920;49.594;11.022;2022-08-24T02:05:58;14.50;99.90
9762;DHT22;4920;49.594;11.022;2022-08-24T02:08:28;14.50;99.90
9762;DHT22;4920;49.594;11.022;2022-08-24T02:10:56;14.40;99.90
9762;DHT22;4920;49.594;11.022;2022-08-24T02:13:26;14.40;99.90
9762;DHT22;4920;49.594;11.022;2022-08-24T02:15:54;14.30;99.90
9762;DHT22;4920;49.594;11.022;2022-08-24T02:18:24;14.30;99.90
9762;DHT22;4920;49.594;11.022;2022-08-24T02:20:52;14.30;99.90
9762;DHT22;4920;49.594;11.022;2022-08-24T02:23:20;14.20;99.90
9762;DHT22;4920;49.594;11.022;2022-08-24T02:25:49;14.20;99.90
9762;DHT22;4920;49.594;11.022;2022-08-24T02:28:18;14.20;99.90
9762;DHT22;4920;49.594;11.022;2022-08-24T02:30:48;14.10;99.90
9762;DHT22;4920;49.594;11.022;2022-08-24T02:33:17;14.10;99.90
9762;DHT22;4920;49.594;11.022;2022-08-24T02:35:45;14.10;99.90
9762;DHT22;4920;49.594;11.022;2022-08-24T02:38:14;14.10;99.90
9762;DHT22;4920;49.594;11.022;2022-08-24T02:40:42;14.10;99.90
9762;DHT22;4920;49.594;11.022;2022-08-24T02:43:11;14.10;1.00
9762;DHT22;4920;49.594;11.022;2022-08-24T02:45:41;14.10;1.00
9762;DHT22;4920;49.594;11.022;2022-08-24T02:48:18;14.10;99.90
9762;DHT22;4920;49.594;11.022;2022-08-24T02:50:48;14.10;1.00
9762;DHT22;4920;49.594;11.022;2022-08-24T02:53:19;14.10;1.00
9762;DHT22;4920;49.594;11.022;2022-08-24T02:55:48;14.10;1.00
9762;DHT22;4920;49.594;11.022;2022-08-24T02:58:17;14.00;1.00
9762;DHT22;4920;49.594;11.022;2022-08-24T03:00:47;14.00;1.00
9762;DHT22;4920;49.594;11.022;2022-08-24T03:03:20;14.00;1.00
9762;DHT22;4920;49.594;11.022;2022-08-24T03:05:48;14.00;1.00
9762;DHT22;4920;49.594;11.022;2022-08-24T03:08:20;14.00;1.00
9762;DHT22;4920;49.594;11.022;2022-08-24T03:10:50;14.00;1.00
9762;DHT22;4920;49.594;11.022;2022-08-24T03:13:18;14.00;1.00
9762;DHT22;4920;49.594;11.022;2022-08-24T03:15:46;14.00;1.00
9762;DHT22;4920;49.594;11.022;2022-08-24T03:18:15;14.10;1.00
9762;DHT22;4920;49.594;11.022;2022-08-24T03:20:44;14.10;1.00
9762;DHT22;4920;49.594;11.022;2022-08-24T03:23:13;14.10;1.00
9762;DHT22;4920;49.594;11.022;2022-08-24T03:25:41;14.10;1.00
9762;DHT22;4920;49.594;11.022;2022-08-24T03:28:10;14.10;1.00
9762;DHT22;4920;49.594;11.022;2022-08-24T03:30:40;14.10;1.00
9762;DHT22;4920;49.594;11.022;2022-08-24T03:33:13;14.10;1.00
9762;DHT22;4920;49.594;11.022;2022-08-24T03:35:42;14.10;1.00
9762;DHT22;4920;49.594;11.022;2022-08-24T03:38:13;14.00;1.00
9762;DHT22;4920;49.594;11.022;2022-08-24T03:40:42;14.00;1.00
9762;DHT22;4920;49.594;11.022;2022-08-24T03:43:10;14.00;1.00
9762;DHT22;4920;49.594;11.022;2022-08-24T03:45:59;13.90;1.00
9762;DHT22;4920;49.594;11.022;2022-08-24T03:48:29;13.80;1.00
9762;DHT22;4920;49.594;11.022;2022-08-24T03:50:58;13.90;1.00
9762;DHT22;4920;49.594;11.022;2022-08-24T03:53:28;13.90;1.00
9762;DHT22;4920;49.594;11.022;2022-08-24T03:55:56;13.90;1.00
9762;DHT22;4920;49.594;11.022;2022-08-24T03:58:29;13.90;1.00
9762;DHT22;4920;49.594;11.022;2022-08-24T04:00:57;13.90;1.00
9762;DHT22;4920;49.594;11.022;2022-08-24T04:03:26;13.90;1.00
9762;DHT22;4920;49.594;11.022;2022-08-24T04:05:59;13.90;1.00
9762;DHT22;4920;49.594;11.022;2022-08-24T04:08:29;13.90;1.00
9762;DHT22;4920;49.594;11.022;2022-08-24T04:10:57;13.80;1.00
9762;DHT22;4920;49.594;11.022;2022-08-24T04:13:26;13.80;1.00
9762;DHT22;4920;49.594;11.022;2022-08-24T04:16:03;13.80;1.00
9762;DHT22;4920;49.594;11.022;2022-08-24T04:18:31;13.80;1.00
9762;DHT22;4920;49.594;11.022;2022-08-24T04:21:00;13.80;1.00
9762;DHT22;4920;49.594;11.022;2022-08-24T04:23:30;13.70;1.00
9762;DHT22;4920;49.594;11.022;2022-08-24T04:26:15;13.70;1.00
9762;DHT22;4920;49.594;11.022;2022-08-24T04:29:04;13.80;1.00
9762;DHT22;4920;49.594;11.022;2022-08-24T04:31:38;13.80;1.00
9762;DHT22;4920;49.594;11.022;2022-08-24T04:34:07;13.80;1.00
9762;DHT22;4920;49.594;11.022;2022-08-24T04:36:38;13.80;1.00
9762;DHT22;4920;49.594;11.022;2022-08-24T04:39:08;13.80;1.00
9762;DHT22;4920;49.594;11.022;2022-08-24T04:42:00;13.90;1.00
9762;DHT22;4920;49.594;11.022;2022-08-24T04:44:34;13.90;1.00
9762;DHT22;4920;49.594;11.022;2022-08-24T04:47:03;13.90;1.00
9762;DHT22;4920;49.594;11.022;2022-08-24T04:49:31;13.90;1.00
9762;DHT22;4920;49.594;11.022;2022-08-24T04:52:00;14.00;1.00
9762;DHT22;4920;49.594;11.022;2022-08-24T04:54:30;14.00;1.00
9762;DHT22;4920;49.594;11.022;2022-08-24T04:57:07;14.10;1.00
9762;DHT22;4920;49.594;11.022;2022-08-24T04:59:38;14.20;1.00
9762;DHT22;4920;49.594;11.022;2022-08-24T05:02:07;14.30;1.00
9762;DHT22;4920;49.594;11.022;2022-08-24T05:04:36;14.40;1.00
9762;DHT22;4920;49.594;11.022;2022-08-24T05:07:06;14.50;1.00
9762;DHT22;4920;49.594;11.022;2022-08-24T05:09:40;14.50;1.00
9762;DHT22;4920;49.594;11.022;2022-08-24T05:12:09;14.60;1.00
9762;DHT22;4920;49.594;11.022;2022-08-24T05:14:43;14.60;1.00
9762;DHT22;4920;49.594;11.022;2022-08-24T05:17:11;14.60;1.00
9762;DHT22;4920;49.594;11.022;2022-08-24T05:19:39;14.70;1.00
9762;DHT22;4920;49.594;11.022;2022-08-24T05:22:08;14.70;1.00
9762;DHT22;4920;49.594;11.022;2022-08-24T05:24:41;14.80;1.00
9762;DHT22;4920;49.594;11.022;2022-08-24T05:27:09;15.00;1.00
9762;DHT22;4920;49.594;11.022;2022-08-24T05:29:40;15.20;1.00
9762;DHT22;4920;49.594;11.022;2022-08-24T05:32:09;15.60;99.90
9762;DHT22;4920;49.594;11.022;2022-08-24T05:34:37;16.00;99.90
9762;DHT22;4920;49.594;11.022;2022-08-24T05:37:06;16.30;99.90
9762;DHT22;4920;49.594;11.022;2022-08-24T05:39:57;16.60;1.00
9762;DHT22;4920;49.594;11.022;2022-08-24T05:42:25;16.90;1.00
9762;DHT22;4920;49.594;11.022;2022-08-24T05:44:54;17.10;99.90
9762;DHT22;4920;49.594;11.022;2022-08-24T05:47:22;17.30;99.90
9762;DHT22;4920;49.594;11.022;2022-08-24T05:49:54;17.40;99.90
9762;DHT22;4920;49.594;11.022;2022-08-24T05:52:22;17.50;1.00
9762;DHT22;4920;49.594;11.022;2022-08-24T05:54:52;17.60;1.00
9762;DHT22;4920;49.594;11.022;2022-08-24T05:57:23;17.60;1.00
9762;DHT22;4920;49.594;11.022;2022-08-24T06:00:04;17.60;1.00
9762;DHT22;4920;49.594;11.022;2022-08-24T06:02:41;17.60;99.90
9762;DHT22;4920;49.594;11.022;2022-08-24T06:05:10;17.70;99.90
9762;DHT22;4920;49.594;11.022;2022-08-24T06:07:40;17.80;1.00
9762;DHT22;4920;49.594;11.022;2022-08-24T06:10:10;17.80;99.90
9762;DHT22;4920;49.594;11.022;2022-08-24T06:13:00;17.90;99.90
9762;DHT22;4920;49.594;11.022;2022-08-24T06:15:29;18.00;99.90
9762;DHT22;4920;49.594;11.022;2022-08-24T06:17:57;18.00;99.90
9762;DHT22;4920;49.594;11.022;2022-08-24T06:20:26;18.10;21.80
9762;DHT22;4920;49.594;11.022;2022-08-24T06:22:54;18.20;1.00
9762;DHT22;4920;49.594;11.022;2022-08-24T06:25:24;18.30;1.00
9762;DHT22;4920;49.594;11.022;2022-08-24T06:28:11;18.40;1.00
9762;DHT22;4920;49.594;11.022;2022-08-24T06:30:40;18.50;99.90
9762;DHT22;4920;49.594;11.022;2022-08-24T06:33:17;18.60;15.70
9762;DHT22;4920;49.594;11.022;2022-08-24T06:35:49;18.70;1.00
9762;DHT22;4920;49.594;11.022;2022-08-24T06:38:18;18.80;1.00
9762;DHT22;4920;49.594;11.022;2022-08-24T06:40:49;18.90;99.90
9762;DHT22;4920;49.594;11.022;2022-08-24T06:43:21;19.00;99.90
9762;DHT22;4920;49.594;11.022;2022-08-24T06:45:53;19.00;99.90
9762;DHT22;4920;49.594;11.022;2022-08-24T06:48:28;19.10;99.90
9762;DHT22;4920;49.594;11.022;2022-08-24T06:50:57;19.20;99.90
9762;DHT22;4920;49.594;11.022;2022-08-24T06:53:26;19.30;99.90
9762;DHT22;4920;49.594;11.022;2022-08-24T06:55:57;19.50;99.90
9762;DHT22;4920;49.594;11.022;2022-08-24T06:58:28;19.50;1.00
9762;DHT22;4920;49.594;11.022;2022-08-24T07:01:05;19.60;1.00
9762;DHT22;4920;49.594;11.022;2022-08-24T07:03:34;19.70;1.00
9762;DHT22;4920;49.594;11.022;2022-08-24T07:06:17;19.80;1.00
9762;DHT22;4920;49.594;11.022;2022-08-24T07:08:45;19.90;1.00
9762;DHT22;4920;49.594;11.022;2022-08-24T07:11:15;20.00;1.00
9762;DHT22;4920;49.594;11.022;2022-08-24T07:13:47;20.10;1.00
9762;DHT22;4920;49.594;11.022;2022-08-24T07:16:17;20.20;99.90
9762;DHT22;4920;49.594;11.022;2022-08-24T07:18:50;20.30;99.90
9762;DHT22;4920;49.594;11.022;2022-08-24T07:21:20;20.40;99.90
9762;DHT22;4920;49.594;11.022;2022-08-24T07:23:54;20.50;99.90
9762;DHT22;4920;49.594;11.022;2022-08-24T07:26:24;20.60;1.00
9762;DHT22;4920;49.594;11.022;2022-08-24T07:28:57;20.70;1.00
9762;DHT22;4920;49.594;11.022;2022-08-24T07:31:37;20.70;1.00
9762;DHT22;4920;49.594;11.022;2022-08-24T07:34:14;20.80;1.00
9762;DHT22;4920;49.594;11.022;2022-08-24T07:40:09;21.00;1.00
9762;DHT22;4920;49.594;11.022;2022-08-24T07:42:37;21.20;1.00
9762;DHT22;4920;49.594;11.022;2022-08-24T07:45:09;21.30;1.00
9762;DHT22;4920;49.594;11.022;2022-08-24T07:47:38;21.40;99.90
9762;DHT22;4920;49.594;11.022;2022-08-24T07:50:34;21.50;99.90
9762;DHT22;4920;49.594;11.022;2022-08-24T07:53:03;21.60;99.90
9762;DHT22;4920;49.594;11.022;2022-08-24T07:55:35;21.70;99.90
9762;DHT22;4920;49.594;11.022;2022-08-24T07:58:12;21.80;99.90
9762;DHT22;4920;49.594;11.022;2022-08-24T08:00:46;22.00;99.90
9762;DHT22;4920;49.594;11.022;2022-08-24T08:03:14;22.10;94.70
9762;DHT22;4920;49.594;11.022;2022-08-24T08:05:44;22.20;25.60
9762;DHT22;4920;49.594;11.022;2022-08-24T08:08:13;22.40;1.00
9762;DHT22;4920;49.594;11.022;2022-08-24T08:10:41;22.60;1.00
9762;DHT22;4920;49.594;11.022;2022-08-24T08:13:10;22.70;1.00
9762;DHT22;4920;49.594;11.022;2022-08-24T08:15:38;22.80;1.00
9762;DHT22;4920;49.594;11.022;2022-08-24T08:18:10;23.00;1.00
9762;DHT22;4920;49.594;11.022;2022-08-24T08:20:40;23.10;1.00
9762;DHT22;4920;49.594;11.022;2022-08-24T08:23:09;23.20;1.00
9762;DHT22;4920;49.594;11.022;2022-08-24T08:25:59;23.30;1.00
9762;DHT22;4920;49.594;11.022;2022-08-24T08:28:43;23.50;1.00
9762;DHT22;4920;49.594;11.022;2022-08-24T08:31:12;23.60;1.00
9762;DHT22;4920;49.594;11.022;2022-08-24T08:33:42;23.70;1.00
9762;DHT22;4920;49.594;11.022;2022-08-24T08:36:12;23.80;1.00
9762;DHT22;4920;49.594;11.022;2022-08-24T08:38:48;23.90;1.00
9762;DHT22;4920;49.594;11.022;2022-08-24T08:41:46;23.90;99.90
9762;DHT22;4920;49.594;11.022;2022-08-24T08:44:29;24.00;99.90
9762;DHT22;4920;49.594;11.022;2022-08-24T08:47:09;24.10;99.90
9762;DHT22;4920;49.594;11.022;2022-08-24T08:50:03;24.10;99.90
9762;DHT22;4920;49.594;11.022;2022-08-24T08:53:06;24.10;99.90
9762;DHT22;4920;49.594;11.022;2022-08-24T08:55:46;24.20;99.90
9762;DHT22;4920;49.594;11.022;2022-08-24T08:58:38;24.20;99.90
9762;DHT22;4920;49.594;11.022;2022-08-24T09:01:25;24.40;99.90
9762;DHT22;4920;49.594;11.022;2022-08-24T09:04:21;24.50;99.90
9762;DHT22;4920;49.594;11.022;2022-08-24T09:07:13;24.60;99.90
9762;DHT22;4920;49.594;11.022;2022-08-24T09:12:56;24.60;99.90
9762;DHT22;4920;49.594;11.022;2022-08-24T09:15:37;24.70;99.90
9762;DHT22;4920;49.594;11.022;2022-08-24T09:18:21;24.90;99.90
9762;DHT22;4920;49.594;11.022;2022-08-24T09:21:14;25.10;99.90
9762;DHT22;4920;49.594;11.022;2022-08-24T09:23:57;25.30;99.90
9762;DHT22;4920;49.594;11.022;2022-08-24T09:26:29;25.50;99.90
9762;DHT22;4920;49.594;11.022;2022-08-24T09:29:06;25.60;99.90
9762;DHT22;4920;49.594;11.022;2022-08-24T09:31:52;25.70;99.90
9762;DHT22;4920;49.594;11.022;2022-08-24T09:34:34;25.90;99.90
9762;DHT22;4920;49.594;11.022;2022-08-24T09:40:29;26.20;99.90
9762;DHT22;4920;49.594;11.022;2022-08-24T09:43:29;26.20;99.90
9762;DHT22;4920;49.594;11.022;2022-08-24T09:46:29;26.20;99.90
9762;DHT22;4920;49.594;11.022;2022-08-24T09:55:47;26.30;99.90
9762;DHT22;4920;49.594;11.022;2022-08-24T09:58:28;26.30;99.90
9762;DHT22;4920;49.594;11.022;2022-08-24T10:01:05;26.40;99.90
9762;DHT22;4920;49.594;11.022;2022-08-24T10:04:00;26.60;99.90
9762;DHT22;4920;49.594;11.022;2022-08-24T10:06:41;26.80;99.90
9762;DHT22;4920;49.594;11.022;2022-08-24T10:09:33;27.00;99.90
9762;DHT22;4920;49.594;11.022;2022-08-24T10:12:15;27.20;99.90
9762;DHT22;4920;49.594;11.022;2022-08-24T10:14:53;27.40;99.90
9762;DHT22;4920;49.594;11.022;2022-08-24T10:17:34;27.60;99.90
9762;DHT22;4920;49.594;11.022;2022-08-24T10:20:14;27.80;99.90
9762;DHT22;4920;49.594;11.022;2022-08-24T10:23:02;27.90;96.60
9762;DHT22;4920;49.594;11.022;2022-08-24T10:25:39;28.00;93.90
9762;DHT22;4920;49.594;11.022;2022-08-24T10:28:41;28.30;91.70
9762;DHT22;4920;49.594;11.022;2022-08-24T10:31:14;28.50;84.90
9762;DHT22;4920;49.594;11.022;2022-08-24T10:33:57;28.60;78.30
9762;DHT22;4920;49.594;11.022;2022-08-24T10:37:00;28.70;74.30
9762;DHT22;4920;49.594;11.022;2022-08-24T10:39:56;28.70;63.00
9762;DHT22;4920;49.594;11.022;2022-08-24T10:42:59;28.80;57.40
9762;DHT22;4920;49.594;11.022;2022-08-24T10:46:19;29.00;55.60
9762;DHT22;4920;49.594;11.022;2022-08-24T10:55:30;29.20;44.10
9762;DHT22;4920;49.594;11.022;2022-08-24T10:58:12;29.30;44.70
9762;DHT22;4920;49.594;11.022;2022-08-24T11:00:47;29.40;38.60
9762;DHT22;4920;49.594;11.022;2022-08-24T11:03:19;29.50;35.30
9762;DHT22;4920;49.594;11.022;2022-08-24T11:05:55;29.60;34.30
9762;DHT22;4920;49.594;11.022;2022-08-24T11:08:25;29.70;31.20
9762;DHT22;4920;49.594;11.022;2022-08-24T11:11:06;29.50;30.10
9762;DHT22;4920;49.594;11.022;2022-08-24T11:13:36;29.50;29.10
9762;DHT22;4920;49.594;11.022;2022-08-24T11:16:05;29.70;28.60
9762;DHT22;4920;49.594;11.022;2022-08-24T11:18:51;30.00;28.20
9762;DHT22;4920;49.594;11.022;2022-08-24T11:21:42;30.40;25.40
9762;DHT22;4920;49.594;11.022;2022-08-24T11:26:57;30.80;18.40
9762;DHT22;4920;49.594;11.022;2022-08-24T11:29:29;30.80;17.10
9762;DHT22;4920;49.594;11.022;2022-08-24T11:32:00;31.00;14.90
9762;DHT22;4920;49.594;11.022;2022-08-24T11:34:36;31.20;12.90
9762;DHT22;4920;49.594;11.022;2022-08-24T11:37:12;31.50;10.70
9762;DHT22;4920;49.594;11.022;2022-08-24T11:39:41;31.80;7.50
9762;DHT22;4920;49.594;11.022;2022-08-24T11:42:15;32.00;5.20
9762;DHT22;4920;49.594;11.022;2022-08-24T11:44:55;32.00;3.70
9762;DHT22;4920;49.594;11.022;2022-08-24T11:50:38;31.80;2.20
9762;DHT22;4920;49.594;11.022;2022-08-24T11:53:22;31.80;1.30
9762;DHT22;4920;49.594;11.022;2022-08-24T11:55:58;31.60;1.00
9762;DHT22;4920;49.594;11.022;2022-08-24T11:58:46;30.80;1.00
9762;DHT22;4920;49.594;11.022;2022-08-24T12:01:22;30.30;1.60
9762;DHT22;4920;49.594;11.022;2022-08-24T12:04:04;29.90;2.00
9762;DHT22;4920;49.594;11.022;2022-08-24T12:06:44;29.50;3.10
9762;DHT22;4920;49.594;11.022;2022-08-24T12:09:26;29.30;3.60
9762;DHT22;4920;49.594;11.022;2022-08-24T12:12:02;29.20;3.60
9762;DHT22;4920;49.594;11.022;2022-08-24T12:14:38;29.10;3.70
9762;DHT22;4920;49.594;11.022;2022-08-24T12:17:12;29.20;4.50
9762;DHT22;4920;49.594;11.022;2022-08-24T12:19:47;29.40;4.40
9762;DHT22;4920;49.594;11.022;2022-08-24T12:22:18;29.60;4.20
9762;DHT22;4920;49.594;11.022;2022-08-24T12:24:49;29.80;2.80
9762;DHT22;4920;49.594;11.022;2022-08-24T12:27:20;29.80;2.10
9762;DHT22;4920;49.594;11.022;2022-08-24T12:29:52;29.80;1.50
9762;DHT22;4920;49.594;11.022;2022-08-24T12:32:30;29.70;1.20
9762;DHT22;4920;49.594;11.022;2022-08-24T12:35:06;29.70;1.40
9762;DHT22;4920;49.594;11.022;2022-08-24T12:37:41;29.70;1.50
9762;DHT22;4920;49.594;11.022;2022-08-24T12:40:20;29.80;1.00
9762;DHT22;4920;49.594;11.022;2022-08-24T12:42:53;30.10;1.00
9762;DHT22;4920;49.594;11.022;2022-08-24T12:45:24;30.40;1.00
9762;DHT22;4920;49.594;11.022;2022-08-24T12:47:56;30.60;1.00
9762;DHT22;4920;49.594;11.022;2022-08-24T12:50:31;30.50;1.00
9762;DHT22;4920;49.594;11.022;2022-08-24T12:59:03;29.10;1.00
9762;DHT22;4920;49.594;11.022;2022-08-24T13:01:33;28.90;1.00
9762;DHT22;4920;49.594;11.022;2022-08-24T13:04:15;28.90;1.00
9762;DHT22;4920;49.594;11.022;2022-08-24T13:06:49;29.00;1.00
9762;DHT22;4920;49.594;11.022;2022-08-24T13:09:31;29.00;1.00
9762;DHT22;4920;49.594;11.022;2022-08-24T13:18:46;29.00;1.00
9762;DHT22;4920;49.594;11.022;2022-08-24T13:21:43;29.20;1.00
9762;DHT22;4920;49.594;11.022;2022-08-24T13:24:41;29.50;1.00
9762;DHT22;4920;49.594;11.022;2022-08-24T13:30:31;30.40;1.00
9762;DHT22;4920;49.594;11.022;2022-08-24T13:33:05;30.90;1.00
9762;DHT22;4920;49.594;11.022;2022-08-24T13:36:00;31.20;1.00
9762;DHT22;4920;49.594;11.022;2022-08-24T13:38:56;31.50;1.00
9762;DHT22;4920;49.594;11.022;2022-08-24T13:41:59;31.70;1.00
9762;DHT22;4920;49.594;11.022;2022-08-24T13:44:52;31.80;1.00
9762;DHT22;4920;49.594;11.022;2022-08-24T13:47:29;31.80;1.00
9762;DHT22;4920;49.594;11.022;2022-08-24T13:50:07;31.60;1.00
9762;DHT22;4920;49.594;11.022;2022-08-24T13:52:45;31.50;1.00
9762;DHT22;4920;49.594;11.022;2022-08-24T13:55:29;31.50;1.00
9762;DHT22;4920;49.594;11.022;2022-08-24T13:58:12;31.60;1.00
9762;DHT22;4920;49.594;11.022;2022-08-24T14:00:48;31.70;1.00
9762;DHT22;4920;49.594;11.022;2022-08-24T14:03:38;31.70;1.00
9762;DHT22;4920;49.594;11.022;2022-08-24T14:06:20;31.50;1.00
9762;DHT22;4920;49.594;11.022;2022-08-24T14:08:58;31.40;1.00
9762;DHT22;4920;49.594;11.022;2022-08-24T14:11:40;31.60;1.00
9762;DHT22;4920;49.594;11.022;2022-08-24T14:14:19;31.80;1.00
9762;DHT22;4920;49.594;11.022;2022-08-24T14:17:00;31.80;1.00
9762;DHT22;4920;49.594;11.022;2022-08-24T14:19:56;31.80;1.00
9762;DHT22;4920;49.594;11.022;2022-08-24T14:22:33;31.80;1.00
9762;DHT22;4920;49.594;11.022;2022-08-24T14:25:15;31.50;1.00
9762;DHT22;4920;49.594;11.022;2022-08-24T14:27:45;31.30;1.00
9762;DHT22;4920;49.594;11.022;2022-08-24T14:30:38;30.90;1.00
9762;DHT22;4920;49.594;11.022;2022-08-24T14:33:15;30.50;1.00
9762;DHT22;4920;49.594;11.022;2022-08-24T14:36:02;30.40;1.00
9762;DHT22;4920;49.594;11.022;2022-08-24T14:38:55;30.50;1.00
9762;DHT22;4920;49.594;11.022;2022-08-24T14:41:49;30.70;1.00
9762;DHT22;4920;49.594;11.022;2022-08-24T14:44:32;30.90;1.00
9762;DHT22;4920;49.594;11.022;2022-08-24T14:47:05;31.20;1.00
9762;DHT22;4920;49.594;11.022;2022-08-24T14:53:02;31.20;1.00
9762;DHT22;4920;49.594;11.022;2022-08-24T14:55:40;30.90;1.00
9762;DHT22;4920;49.594;11.022;2022-08-24T14:58:39;30.60;1.00
9762;DHT22;4920;49.594;11.022;2022-08-24T15:01:26;30.20;1.00
9762;DHT22;4920;49.594;11.022;2022-08-24T15:04:07;29.90;1.00
9762;DHT22;4920;49.594;11.022;2022-08-24T15:06:46;29.70;1.00
9762;DHT22;4920;49.594;11.022;2022-08-24T15:09:23;29.70;1.00
9762;DHT22;4920;49.594;11.022;2022-08-24T15:11:55;29.90;1.00
9762;DHT22;4920;49.594;11.022;2022-08-24T15:14:36;30.10;1.00
9762;DHT22;4920;49.594;11.022;2022-08-24T15:17:11;30.40;1.00
9762;DHT22;4920;49.594;11.022;2022-08-24T15:19:48;30.70;1.00
9762;DHT22;4920;49.594;11.022;2022-08-24T15:22:25;30.80;1.00
9762;DHT22;4920;49.594;11.022;2022-08-24T15:25:02;30.80;1.00
9762;DHT22;4920;49.594;11.022;2022-08-24T15:27:39;30.70;1.00
9762;DHT22;4920;49.594;11.022;2022-08-24T15:30:21;30.50;1.00
9762;DHT22;4920;49.594;11.022;2022-08-24T15:32:52;30.20;1.00
9762;DHT22;4920;49.594;11.022;2022-08-24T15:35:26;29.90;1.00
9762;DHT22;4920;49.594;11.022;2022-08-24T15:37:55;29.60;1.20
9762;DHT22;4920;49.594;11.022;2022-08-24T15:40:28;29.40;1.00
9762;DHT22;4920;49.594;11.022;2022-08-24T15:43:01;29.30;1.00
9762;DHT22;4920;49.594;11.022;2022-08-24T15:45:30;29.20;1.00
9762;DHT22;4920;49.594;11.022;2022-08-24T15:48:00;29.20;1.00
9762;DHT22;4920;49.594;11.022;2022-08-24T15:50:38;29.20;1.00
9762;DHT22;4920;49.594;11.022;2022-08-24T15:53:33;29.20;1.00
9762;DHT22;4920;49.594;11.022;2022-08-24T15:56:26;29.30;1.00
9762;DHT22;4920;49.594;11.022;2022-08-24T15:59:06;29.40;1.00
9762;DHT22;4920;49.594;11.022;2022-08-24T16:01:34;29.50;1.00
9762;DHT22;4920;49.594;11.022;2022-08-24T16:04:42;29.50;1.00
9762;DHT22;4920;49.594;11.022;2022-08-24T16:07:24;29.30;1.00
9762;DHT22;4920;49.594;11.022;2022-08-24T16:10:04;29.20;1.00
9762;DHT22;4920;49.594;11.022;2022-08-24T16:12:34;29.10;1.00
9762;DHT22;4920;49.594;11.022;2022-08-24T16:15:13;29.00;1.00
9762;DHT22;4920;49.594;11.022;2022-08-24T16:17:46;28.90;1.00
9762;DHT22;4920;49.594;11.022;2022-08-24T16:20:30;28.70;1.00
9762;DHT22;4920;49.594;11.022;2022-08-24T16:23:02;28.50;1.00
9762;DHT22;4920;49.594;11.022;2022-08-24T16:28:50;28.20;1.00
9762;DHT22;4920;49.594;11.022;2022-08-24T16:31:43;28.00;1.00
9762;DHT22;4920;49.594;11.022;2022-08-24T16:34:21;27.90;1.00
9762;DHT22;4920;49.594;11.022;2022-08-24T16:41:03;27.90;1.00
9762;DHT22;4920;49.594;11.022;2022-08-24T16:43:34;27.80;1.00
9762;DHT22;4920;49.594;11.022;2022-08-24T16:46:09;27.70;1.00
9762;DHT22;4920;49.594;11.022;2022-08-24T16:49:05;27.60;1.00
9762;DHT22;4920;49.594;11.022;2022-08-24T16:51:38;27.50;1.00
9762;DHT22;4920;49.594;11.022;2022-08-24T16:54:16;27.50;1.00
9762;DHT22;4920;49.594;11.022;2022-08-24T16:56:50;27.50;1.00
9762;DHT22;4920;49.594;11.022;2022-08-24T16:59:24;27.40;1.00
9762;DHT22;4920;49.594;11.022;2022-08-24T17:01:56;27.30;1.00
9762;DHT22;4920;49.594;11.022;2022-08-24T17:04:29;27.20;1.00
9762;DHT22;4920;49.594;11.022;2022-08-24T17:06:57;27.20;1.00
9762;DHT22;4920;49.594;11.022;2022-08-24T17:09:25;27.10;1.00
9762;DHT22;4920;49.594;11.022;2022-08-24T17:12:19;27.00;1.00
9762;DHT22;4920;49.594;11.022;2022-08-24T17:14:47;27.00;1.00
9762;DHT22;4920;49.594;11.022;2022-08-24T17:17:19;26.90;1.00
9762;DHT22;4920;49.594;11.022;2022-08-24T17:19:49;26.90;1.00
9762;DHT22;4920;49.594;11.022;2022-08-24T17:22:19;26.80;1.00
9762;DHT22;4920;49.594;11.022;2022-08-24T17:24:47;26.90;1.00
9762;DHT22;4920;49.594;11.022;2022-08-24T17:27:17;27.00;1.00
9762;DHT22;4920;49.594;11.022;2022-08-24T17:29:53;27.50;1.00
9762;DHT22;4920;49.594;11.022;2022-08-24T17:32:22;28.00;1.00
9762;DHT22;4920;49.594;11.022;2022-08-24T17:34:51;28.60;1.00
9762;DHT22;4920;49.594;11.022;2022-08-24T17:37:19;29.20;1.00
9762;DHT22;4920;49.594;11.022;2022-08-24T17:39:50;29.60;1.00
9762;DHT22;4920;49.594;11.022;2022-08-24T17:42:21;29.90;1.00
9762;DHT22;4920;49.594;11.022;2022-08-24T17:45:09;30.10;1.00
9762;DHT22;4920;49.594;11.022;2022-08-24T17:47:40;29.90;1.00